sensor_id;sensor_type;location;lat;lon;timestamp;P1;durP1;ratioP1;P2;durP2;ratioP2
22579;SDS011;11456;47.030;15.396;2024-02-23T00:01:10;1.02;;;0.90;;
22579;SDS011;11456;47.030;15.396;2024-02-23T00:03:38;1.25;;;0.90;;
22579;SDS011;11456;47.030;15.396;2024-02-23T00:06:05;1.38;;;1.00;;
22579;SDS011;11456;47.030;15.396;2024-02-23T00:08:32;1.10;;;1.00;;
22579;SDS011;11456;47.030;15.396;2024-02-23T00:10:59;1.45;;;1.00;;
22579;SDS011;11456;47.030;15.396;2024-02-23T00:13:26;1.17;;;1.00;;
22579;SDS011;11456;47.030;15.396;2024-02-23T00:15:52;1.98;;;0.98;;
22579;SDS011;11456;47.030;15.396;2024-02-23T00:18:19;2.42;;;1.10;;
22579;SDS011;11456;47.030;15.396;2024-02-23T00:20:47;1.52;;;1.00;;
22579;SDS011;11456;47.030;15.396;2024-02-23T00:23:13;1.52;;;1.42;;
22579;SDS011;11456;47.030;15.396;2024-02-23T00:25:40;1.55;;;1.40;;
22579;SDS011;11456;47.030;15.396;2024-02-23T00:28:08;2.60;;;1.30;;
22579;SDS011;11456;47.030;15.396;2024-02-23T00:30:35;2.10;;;1.20;;
22579;SDS011;11456;47.030;15.396;2024-02-23T00:33:02;1.60;;;1.10;;
22579;SDS011;11456;47.030;15.396;2024-02-23T00:35:29;1.63;;;1.05;;
22579;SDS011;11456;47.030;15.396;2024-02-23T00:37:56;0.82;;;0.75;;
22579;SDS011;11456;47.030;15.396;2024-02-23T00:40:23;1.73;;;0.90;;
22579;SDS011;11456;47.030;15.396;2024-02-23T00:42:50;1.05;;;0.85;;
22579;SDS011;11456;47.030;15.396;2024-02-23T00:45:16;1.42;;;0.90;;
22579;SDS011;11456;47.030;15.396;2024-02-23T00:47:43;2.10;;;0.80;;
22579;SDS011;11456;47.030;15.396;2024-02-23T00:50:11;1.00;;;0.90;;
22579;SDS011;11456;47.030;15.396;2024-02-23T00:52:38;0.85;;;0.82;;
22579;SDS011;11456;47.030;15.396;2024-02-23T00:55:05;1.27;;;0.80;;
22579;SDS011;11456;47.030;15.396;2024-02-23T00:57:32;1.00;;;0.90;;
22579;SDS011;11456;47.030;15.396;2024-02-23T00:59:58;2.65;;;0.68;;
22579;SDS011;11456;47.030;15.396;2024-02-23T01:02:25;0.80;;;0.75;;
22579;SDS011;11456;47.030;15.396;2024-02-23T01:04:52;2.33;;;0.70;;
22579;SDS011;11456;47.030;15.396;2024-02-23T01:07:23;1.10;;;0.83;;
22579;SDS011;11456;47.030;15.396;2024-02-23T01:09:52;1.10;;;0.85;;
22579;SDS011;11456;47.030;15.396;2024-02-23T01:12:18;0.98;;;0.88;;
22579;SDS011;11456;47.030;15.396;2024-02-23T01:14:45;1.55;;;1.10;;
22579;SDS011;11456;47.030;15.396;2024-02-23T01:17:14;1.23;;;1.10;;
22579;SDS011;11456;47.030;15.396;2024-02-23T01:19:43;1.35;;;0.77;;
22579;SDS011;11456;47.030;15.396;2024-02-23T01:22:10;3.72;;;0.90;;
22579;SDS011;11456;47.030;15.396;2024-02-23T01:24:36;0.98;;;0.80;;
22579;SDS011;11456;47.030;15.396;2024-02-23T01:27:03;0.60;;;0.60;;
22579;SDS011;11456;47.030;15.396;2024-02-23T01:29:30;2.67;;;0.70;;
22579;SDS011;11456;47.030;15.396;2024-02-23T01:31:57;1.02;;;0.77;;
22579;SDS011;11456;47.030;15.396;2024-02-23T01:34:24;1.15;;;0.70;;
22579;SDS011;11456;47.030;15.396;2024-02-23T01:36:51;1.10;;;0.90;;
22579;SDS011;11456;47.030;15.396;2024-02-23T01:39:17;1.23;;;0.80;;
22579;SDS011;11456;47.030;15.396;2024-02-23T01:41:45;0.68;;;0.68;;
22579;SDS011;11456;47.030;15.396;2024-02-23T01:44:12;3.00;;;0.80;;
22579;SDS011;11456;47.030;15.396;2024-02-23T01:46:39;1.65;;;0.75;;
22579;SDS011;11456;47.030;15.396;2024-02-23T01:49:06;0.73;;;0.60;;
22579;SDS011;11456;47.030;15.396;2024-02-23T01:51:34;0.50;;;0.50;;
22579;SDS011;11456;47.030;15.396;2024-02-23T01:54:02;0.90;;;0.63;;
22579;SDS011;11456;47.030;15.396;2024-02-23T01:56:29;0.95;;;0.80;;
22579;SDS011;11456;47.030;15.396;2024-02-23T01:58:58;0.90;;;0.63;;
22579;SDS011;11456;47.030;15.396;2024-02-23T02:01:26;0.50;;;0.50;;
22579;SDS011;11456;47.030;15.396;2024-02-23T02:03:53;0.90;;;0.70;;
22579;SDS011;11456;47.030;15.396;2024-02-23T02:06:23;1.00;;;0.77;;
22579;SDS011;11456;47.030;15.396;2024-02-23T02:08:50;0.70;;;0.68;;
22579;SDS011;11456;47.030;15.396;2024-02-23T02:11:17;0.60;;;0.60;;
22579;SDS011;11456;47.030;15.396;2024-02-23T02:13:44;0.70;;;0.70;;
22579;SDS011;11456;47.030;15.396;2024-02-23T02:16:11;0.80;;;0.70;;
22579;SDS011;11456;47.030;15.396;2024-02-23T02:18:38;0.77;;;0.60;;
22579;SDS011;11456;47.030;15.396;2024-02-23T02:21:04;1.35;;;0.80;;
22579;SDS011;11456;47.030;15.396;2024-02-23T02:23:31;3.00;;;0.75;;
22579;SDS011;11456;47.030;15.396;2024-02-23T02:25:58;2.15;;;0.77;;
22579;SDS011;11456;47.030;15.396;2024-02-23T02:28:25;2.05;;;1.00;;
22579;SDS011;11456;47.030;15.396;2024-02-23T02:30:52;1.45;;;0.50;;
22579;SDS011;11456;47.030;15.396;2024-02-23T02:33:20;1.27;;;0.80;;
22579;SDS011;11456;47.030;15.396;2024-02-23T02:35:47;2.08;;;0.93;;
22579;SDS011;11456;47.030;15.396;2024-02-23T02:38:16;0.70;;;0.70;;
22579;SDS011;11456;47.030;15.396;2024-02-23T02:40:42;0.95;;;0.82;;
22579;SDS011;11456;47.030;15.396;2024-02-23T02:43:09;0.80;;;0.80;;
22579;SDS011;11456;47.030;15.396;2024-02-23T02:45:37;2.67;;;1.00;;
22579;SDS011;11456;47.030;15.396;2024-02-23T02:48:04;2.97;;;1.25;;
22579;SDS011;11456;47.030;15.396;2024-02-23T02:50:31;2.55;;;0.70;;
22579;SDS011;11456;47.030;15.396;2024-02-23T02:52:58;1.58;;;0.80;;
22579;SDS011;11456;47.030;15.396;2024-02-23T02:55:25;0.68;;;0.60;;
22579;SDS011;11456;47.030;15.396;2024-02-23T02:57:51;0.90;;;0.65;;
22579;SDS011;11456;47.030;15.396;2024-02-23T03:00:18;0.85;;;0.68;;
22579;SDS011;11456;47.030;15.396;2024-02-23T03:02:45;2.42;;;0.60;;
22579;SDS011;11456;47.030;15.396;2024-02-23T03:05:11;0.68;;;0.68;;
22579;SDS011;11456;47.030;15.396;2024-02-23T03:07:38;1.30;;;0.57;;
22579;SDS011;11456;47.030;15.396;2024-02-23T03:10:05;0.70;;;0.70;;
22579;SDS011;11456;47.030;15.396;2024-02-23T03:12:32;0.65;;;0.60;;
22579;SDS011;11456;47.030;15.396;2024-02-23T03:14:59;0.68;;;0.68;;
22579;SDS011;11456;47.030;15.396;2024-02-23T03:17:26;1.35;;;0.90;;
22579;SDS011;11456;47.030;15.396;2024-02-23T03:19:53;3.45;;;0.73;;
22579;SDS011;11456;47.030;15.396;2024-02-23T03:22:20;0.98;;;0.52;;
22579;SDS011;11456;47.030;15.396;2024-02-23T03:24:46;0.70;;;0.60;;
22579;SDS011;11456;47.030;15.396;2024-02-23T03:27:13;0.85;;;0.57;;
22579;SDS011;11456;47.030;15.396;2024-02-23T03:29:40;0.68;;;0.65;;
22579;SDS011;11456;47.030;15.396;2024-02-23T03:32:07;1.50;;;0.55;;
22579;SDS011;11456;47.030;15.396;2024-02-23T03:34:35;0.98;;;0.75;;
22579;SDS011;11456;47.030;15.396;2024-02-23T03:37:02;1.33;;;0.60;;
22579;SDS011;11456;47.030;15.396;2024-02-23T03:39:29;0.65;;;0.65;;
22579;SDS011;11456;47.030;15.396;2024-02-23T03:41:56;1.17;;;0.60;;
22579;SDS011;11456;47.030;15.396;2024-02-23T03:44:22;0.50;;;0.50;;
22579;SDS011;11456;47.030;15.396;2024-02-23T03:46:50;0.68;;;0.60;;
22579;SDS011;11456;47.030;15.396;2024-02-23T03:49:17;1.58;;;0.63;;
22579;SDS011;11456;47.030;15.396;2024-02-23T03:51:43;0.73;;;0.52;;
22579;SDS011;11456;47.030;15.396;2024-02-23T03:54:10;0.52;;;0.52;;
22579;SDS011;11456;47.030;15.396;2024-02-23T03:56:40;1.67;;;0.60;;
22579;SDS011;11456;47.030;15.396;2024-02-23T03:59:08;1.08;;;0.57;;
22579;SDS011;11456;47.030;15.396;2024-02-23T04:01:38;0.70;;;0.60;;
22579;SDS011;11456;47.030;15.396;2024-02-23T04:04:06;0.50;;;0.50;;
22579;SDS011;11456;47.030;15.396;2024-02-23T04:06:33;0.50;;;0.50;;
22579;SDS011;11456;47.030;15.396;2024-02-23T04:09:00;0.70;;;0.70;;
22579;SDS011;11456;47.030;15.396;2024-02-23T04:11:27;0.63;;;0.63;;
22579;SDS011;11456;47.030;15.396;2024-02-23T04:13:54;0.75;;;0.68;;
22579;SDS011;11456;47.030;15.396;2024-02-23T04:16:24;0.60;;;0.60;;
22579;SDS011;11456;47.030;15.396;2024-02-23T04:18:52;0.60;;;0.60;;
22579;SDS011;11456;47.030;15.396;2024-02-23T04:21:19;1.02;;;0.90;;
22579;SDS011;11456;47.030;15.396;2024-02-23T04:23:46;1.30;;;0.60;;
22579;SDS011;11456;47.030;15.396;2024-02-23T04:26:13;2.75;;;0.60;;
22579;SDS011;11456;47.030;15.396;2024-02-23T04:28:40;0.95;;;0.82;;
22579;SDS011;11456;47.030;15.396;2024-02-23T04:31:08;1.45;;;1.05;;
22579;SDS011;11456;47.030;15.396;2024-02-23T04:33:35;1.65;;;1.13;;
22579;SDS011;11456;47.030;15.396;2024-02-23T04:36:03;1.27;;;0.80;;
22579;SDS011;11456;47.030;15.396;2024-02-23T04:38:30;0.50;;;0.50;;
22579;SDS011;11456;47.030;15.396;2024-02-23T04:40:58;0.60;;;0.55;;
22579;SDS011;11456;47.030;15.396;2024-02-23T04:43:25;1.30;;;0.70;;
22579;SDS011;11456;47.030;15.396;2024-02-23T04:45:51;0.85;;;0.80;;
22579;SDS011;11456;47.030;15.396;2024-02-23T04:48:18;1.63;;;0.90;;
22579;SDS011;11456;47.030;15.396;2024-02-23T04:50:45;1.42;;;1.00;;
22579;SDS011;11456;47.030;15.396;2024-02-23T04:53:12;1.33;;;1.10;;
22579;SDS011;11456;47.030;15.396;2024-02-23T04:55:38;1.63;;;1.08;;
22579;SDS011;11456;47.030;15.396;2024-02-23T04:58:05;1.88;;;1.23;;
22579;SDS011;11456;47.030;15.396;2024-02-23T05:00:32;2.40;;;0.80;;
22579;SDS011;11456;47.030;15.396;2024-02-23T05:03:00;1.27;;;1.10;;
22579;SDS011;11456;47.030;15.396;2024-02-23T05:05:30;2.63;;;1.60;;
22579;SDS011;11456;47.030;15.396;2024-02-23T05:07:58;2.15;;;1.40;;
22579;SDS011;11456;47.030;15.396;2024-02-23T05:10:26;1.30;;;1.20;;
22579;SDS011;11456;47.030;15.396;2024-02-23T05:12:53;1.80;;;1.23;;
22579;SDS011;11456;47.030;15.396;2024-02-23T05:15:19;4.13;;;1.30;;
22579;SDS011;11456;47.030;15.396;2024-02-23T05:17:47;2.28;;;1.40;;
22579;SDS011;11456;47.030;15.396;2024-02-23T05:20:14;2.13;;;1.33;;
22579;SDS011;11456;47.030;15.396;2024-02-23T05:22:41;1.60;;;1.25;;
22579;SDS011;11456;47.030;15.396;2024-02-23T05:25:07;2.03;;;1.40;;
22579;SDS011;11456;47.030;15.396;2024-02-23T05:27:34;2.28;;;1.42;;
22579;SDS011;11456;47.030;15.396;2024-02-23T05:30:01;1.42;;;1.25;;
22579;SDS011;11456;47.030;15.396;2024-02-23T05:32:28;3.08;;;1.30;;
22579;SDS011;11456;47.030;15.396;2024-02-23T05:34:55;3.20;;;1.30;;
22579;SDS011;11456;47.030;15.396;2024-02-23T05:37:23;1.58;;;1.35;;
22579;SDS011;11456;47.030;15.396;2024-02-23T05:39:50;2.22;;;1.40;;
22579;SDS011;11456;47.030;15.396;2024-02-23T05:42:17;2.65;;;1.52;;
22579;SDS011;11456;47.030;15.396;2024-02-23T05:44:44;2.03;;;1.25;;
22579;SDS011;11456;47.030;15.396;2024-02-23T05:47:11;1.48;;;1.20;;
22579;SDS011;11456;47.030;15.396;2024-02-23T05:49:40;2.35;;;1.42;;
22579;SDS011;11456;47.030;15.396;2024-02-23T05:52:07;1.50;;;1.20;;
22579;SDS011;11456;47.030;15.396;2024-02-23T05:54:34;1.85;;;1.60;;
22579;SDS011;11456;47.030;15.396;2024-02-23T05:57:00;3.28;;;1.58;;
22579;SDS011;11456;47.030;15.396;2024-02-23T05:59:27;3.15;;;2.00;;
22579;SDS011;11456;47.030;15.396;2024-02-23T06:01:54;4.50;;;2.80;;
22579;SDS011;11456;47.030;15.396;2024-02-23T06:04:23;5.70;;;3.28;;
22579;SDS011;11456;47.030;15.396;2024-02-23T06:06:50;5.32;;;3.35;;
22579;SDS011;11456;47.030;15.396;2024-02-23T06:09:17;6.72;;;3.40;;
22579;SDS011;11456;47.030;15.396;2024-02-23T06:11:45;3.70;;;2.20;;
22579;SDS011;11456;47.030;15.396;2024-02-23T06:14:13;3.50;;;2.10;;
22579;SDS011;11456;47.030;15.396;2024-02-23T06:16:40;4.35;;;2.50;;
22579;SDS011;11456;47.030;15.396;2024-02-23T06:19:07;5.53;;;2.40;;
22579;SDS011;11456;47.030;15.396;2024-02-23T06:21:33;6.35;;;2.97;;
22579;SDS011;11456;47.030;15.396;2024-02-23T06:24:00;5.30;;;3.35;;
22579;SDS011;11456;47.030;15.396;2024-02-23T06:26:27;3.95;;;2.45;;
22579;SDS011;11456;47.030;15.396;2024-02-23T06:28:54;3.92;;;2.42;;
22579;SDS011;11456;47.030;15.396;2024-02-23T06:31:21;3.03;;;2.35;;
22579;SDS011;11456;47.030;15.396;2024-02-23T06:33:47;4.07;;;2.55;;
22579;SDS011;11456;47.030;15.396;2024-02-23T06:36:16;4.28;;;2.47;;
22579;SDS011;11456;47.030;15.396;2024-02-23T06:38:42;3.28;;;2.42;;
22579;SDS011;11456;47.030;15.396;2024-02-23T06:41:09;3.78;;;2.45;;
22579;SDS011;11456;47.030;15.396;2024-02-23T06:43:37;3.22;;;2.30;;
22579;SDS011;11456;47.030;15.396;2024-02-23T06:46:06;3.60;;;2.80;;
22579;SDS011;11456;47.030;15.396;2024-02-23T06:48:34;8.65;;;3.63;;
22579;SDS011;11456;47.030;15.396;2024-02-23T06:51:04;2.85;;;2.30;;
22579;SDS011;11456;47.030;15.396;2024-02-23T06:53:33;4.95;;;2.35;;
22579;SDS011;11456;47.030;15.396;2024-02-23T06:55:59;7.07;;;2.70;;
22579;SDS011;11456;47.030;15.396;2024-02-23T06:58:27;5.32;;;2.83;;
22579;SDS011;11456;47.030;15.396;2024-02-23T07:00:54;3.38;;;2.60;;
22579;SDS011;11456;47.030;15.396;2024-02-23T07:03:21;7.78;;;3.33;;
22579;SDS011;11456;47.030;15.396;2024-02-23T07:05:48;5.80;;;3.60;;
22579;SDS011;11456;47.030;15.396;2024-02-23T07:08:17;5.78;;;3.30;;
22579;SDS011;11456;47.030;15.396;2024-02-23T07:10:44;6.30;;;3.28;;
22579;SDS011;11456;47.030;15.396;2024-02-23T07:13:11;5.13;;;3.47;;
22579;SDS011;11456;47.030;15.396;2024-02-23T07:15:38;5.50;;;3.42;;
22579;SDS011;11456;47.030;15.396;2024-02-23T07:18:05;12.68;;;5.70;;
22579;SDS011;11456;47.030;15.396;2024-02-23T07:20:38;12.60;;;5.57;;
22579;SDS011;11456;47.030;15.396;2024-02-23T07:23:05;30.30;;;8.77;;
22579;SDS011;11456;47.030;15.396;2024-02-23T07:25:32;13.90;;;6.28;;
22579;SDS011;11456;47.030;15.396;2024-02-23T07:27:59;16.55;;;6.35;;
22579;SDS011;11456;47.030;15.396;2024-02-23T07:30:26;16.77;;;7.28;;
22579;SDS011;11456;47.030;15.396;2024-02-23T07:32:52;15.07;;;6.55;;
22579;SDS011;11456;47.030;15.396;2024-02-23T07:35:19;12.45;;;6.03;;
22579;SDS011;11456;47.030;15.396;2024-02-23T07:37:46;14.40;;;5.95;;
22579;SDS011;11456;47.030;15.396;2024-02-23T07:40:13;9.13;;;5.57;;
22579;SDS011;11456;47.030;15.396;2024-02-23T07:42:44;10.60;;;5.20;;
22579;SDS011;11456;47.030;15.396;2024-02-23T07:45:11;12.13;;;5.50;;
22579;SDS011;11456;47.030;15.396;2024-02-23T07:47:37;11.13;;;5.47;;
22579;SDS011;11456;47.030;15.396;2024-02-23T07:50:05;9.85;;;5.43;;
22579;SDS011;11456;47.030;15.396;2024-02-23T07:52:32;8.68;;;4.55;;
22579;SDS011;11456;47.030;15.396;2024-02-23T07:54:58;11.40;;;5.65;;
22579;SDS011;11456;47.030;15.396;2024-02-23T07:57:28;9.48;;;4.72;;
22579;SDS011;11456;47.030;15.396;2024-02-23T07:59:55;6.55;;;4.28;;
22579;SDS011;11456;47.030;15.396;2024-02-23T08:02:22;8.43;;;4.45;;
22579;SDS011;11456;47.030;15.396;2024-02-23T08:04:49;6.78;;;4.15;;
22579;SDS011;11456;47.030;15.396;2024-02-23T08:07:16;8.20;;;3.80;;
22579;SDS011;11456;47.030;15.396;2024-02-23T08:09:43;7.18;;;3.67;;
22579;SDS011;11456;47.030;15.396;2024-02-23T08:12:11;5.80;;;3.40;;
22579;SDS011;11456;47.030;15.396;2024-02-23T08:14:40;6.63;;;3.78;;
22579;SDS011;11456;47.030;15.396;2024-02-23T08:17:10;8.77;;;4.15;;
22579;SDS011;11456;47.030;15.396;2024-02-23T08:19:37;9.05;;;3.72;;
22579;SDS011;11456;47.030;15.396;2024-02-23T08:22:03;6.03;;;3.30;;
22579;SDS011;11456;47.030;15.396;2024-02-23T08:24:30;6.32;;;3.60;;
22579;SDS011;11456;47.030;15.396;2024-02-23T08:26:57;6.82;;;3.47;;
22579;SDS011;11456;47.030;15.396;2024-02-23T08:29:25;7.47;;;3.28;;
22579;SDS011;11456;47.030;15.396;2024-02-23T08:31:52;7.72;;;3.50;;
22579;SDS011;11456;47.030;15.396;2024-02-23T08:34:19;7.55;;;3.67;;
22579;SDS011;11456;47.030;15.396;2024-02-23T08:36:45;5.20;;;3.17;;
22579;SDS011;11456;47.030;15.396;2024-02-23T08:39:12;9.45;;;3.30;;
22579;SDS011;11456;47.030;15.396;2024-02-23T08:41:39;7.50;;;2.95;;
22579;SDS011;11456;47.030;15.396;2024-02-23T08:44:06;7.38;;;3.45;;
22579;SDS011;11456;47.030;15.396;2024-02-23T08:46:34;5.35;;;2.92;;
22579;SDS011;11456;47.030;15.396;2024-02-23T08:49:00;5.47;;;2.95;;
22579;SDS011;11456;47.030;15.396;2024-02-23T08:51:27;6.43;;;3.00;;
22579;SDS011;11456;47.030;15.396;2024-02-23T08:53:54;5.63;;;2.92;;
22579;SDS011;11456;47.030;15.396;2024-02-23T08:58:53;4.25;;;2.85;;
22579;SDS011;11456;47.030;15.396;2024-02-23T09:01:19;5.95;;;2.85;;
22579;SDS011;11456;47.030;15.396;2024-02-23T09:03:46;6.43;;;2.50;;
22579;SDS011;11456;47.030;15.396;2024-02-23T09:06:13;4.38;;;2.25;;
22579;SDS011;11456;47.030;15.396;2024-02-23T09:08:40;3.72;;;2.60;;
22579;SDS011;11456;47.030;15.396;2024-02-23T09:11:07;4.75;;;2.63;;
22579;SDS011;11456;47.030;15.396;2024-02-23T09:13:34;4.97;;;2.83;;
22579;SDS011;11456;47.030;15.396;2024-02-23T09:16:01;4.30;;;2.63;;
22579;SDS011;11456;47.030;15.396;2024-02-23T09:18:29;4.57;;;2.60;;
22579;SDS011;11456;47.030;15.396;2024-02-23T09:20:56;4.15;;;2.53;;
22579;SDS011;11456;47.030;15.396;2024-02-23T09:23:23;3.97;;;2.50;;
22579;SDS011;11456;47.030;15.396;2024-02-23T09:25:50;4.28;;;2.30;;
22579;SDS011;11456;47.030;15.396;2024-02-23T09:28:17;7.10;;;2.45;;
22579;SDS011;11456;47.030;15.396;2024-02-23T09:30:43;3.40;;;2.50;;
22579;SDS011;11456;47.030;15.396;2024-02-23T09:33:10;3.40;;;2.25;;
22579;SDS011;11456;47.030;15.396;2024-02-23T09:35:37;4.57;;;2.50;;
22579;SDS011;11456;47.030;15.396;2024-02-23T09:38:04;5.25;;;2.40;;
22579;SDS011;11456;47.030;15.396;2024-02-23T09:40:31;5.75;;;2.50;;
22579;SDS011;11456;47.030;15.396;2024-02-23T09:42:58;5.97;;;2.70;;
22579;SDS011;11456;47.030;15.396;2024-02-23T09:45:25;6.40;;;3.03;;
22579;SDS011;11456;47.030;15.396;2024-02-23T09:47:56;11.07;;;2.75;;
22579;SDS011;11456;47.030;15.396;2024-02-23T09:50:24;3.80;;;2.50;;
22579;SDS011;11456;47.030;15.396;2024-02-23T09:52:52;3.90;;;2.55;;
22579;SDS011;11456;47.030;15.396;2024-02-23T09:55:20;4.10;;;2.55;;
22579;SDS011;11456;47.030;15.396;2024-02-23T09:57:48;5.47;;;3.47;;
22579;SDS011;11456;47.030;15.396;2024-02-23T10:00:23;6.32;;;3.28;;
22579;SDS011;11456;47.030;15.396;2024-02-23T10:02:50;4.50;;;2.55;;
22579;SDS011;11456;47.030;15.396;2024-02-23T10:05:17;11.27;;;3.10;;
22579;SDS011;11456;47.030;15.396;2024-02-23T10:07:45;4.88;;;2.60;;
22579;SDS011;11456;47.030;15.396;2024-02-23T10:10:13;5.45;;;2.75;;
22579;SDS011;11456;47.030;15.396;2024-02-23T10:12:40;6.05;;;2.95;;
22579;SDS011;11456;47.030;15.396;2024-02-23T10:15:06;5.80;;;2.75;;
22579;SDS011;11456;47.030;15.396;2024-02-23T10:17:33;5.68;;;3.17;;
22579;SDS011;11456;47.030;15.396;2024-02-23T10:20:02;4.82;;;3.00;;
22579;SDS011;11456;47.030;15.396;2024-02-23T10:22:32;8.02;;;2.83;;
22579;SDS011;11456;47.030;15.396;2024-02-23T10:24:59;7.18;;;3.22;;
22579;SDS011;11456;47.030;15.396;2024-02-23T10:27:26;7.78;;;3.30;;
22579;SDS011;11456;47.030;15.396;2024-02-23T10:29:53;7.00;;;3.22;;
22579;SDS011;11456;47.030;15.396;2024-02-23T10:32:20;4.90;;;2.95;;
22579;SDS011;11456;47.030;15.396;2024-02-23T10:34:50;5.35;;;2.63;;
22579;SDS011;11456;47.030;15.396;2024-02-23T10:37:19;4.30;;;2.72;;
22579;SDS011;11456;47.030;15.396;2024-02-23T10:39:48;5.00;;;2.60;;
22579;SDS011;11456;47.030;15.396;2024-02-23T10:42:20;2.77;;;2.30;;
22579;SDS011;11456;47.030;15.396;2024-02-23T10:44:50;7.70;;;2.67;;
22579;SDS011;11456;47.030;15.396;2024-02-23T10:47:19;6.97;;;3.17;;
22579;SDS011;11456;47.030;15.396;2024-02-23T10:49:48;3.95;;;2.78;;
22579;SDS011;11456;47.030;15.396;2024-02-23T10:52:15;6.00;;;2.50;;
22579;SDS011;11456;47.030;15.396;2024-02-23T10:54:45;9.25;;;3.00;;
22579;SDS011;11456;47.030;15.396;2024-02-23T10:57:13;4.88;;;2.53;;
22579;SDS011;11456;47.030;15.396;2024-02-23T10:59:44;5.05;;;2.85;;
22579;SDS011;11456;47.030;15.396;2024-02-23T11:02:13;6.18;;;2.90;;
22579;SDS011;11456;47.030;15.396;2024-02-23T11:04:45;4.18;;;2.85;;
22579;SDS011;11456;47.030;15.396;2024-02-23T11:07:21;6.53;;;2.53;;
22579;SDS011;11456;47.030;15.396;2024-02-23T11:09:49;6.85;;;3.10;;
22579;SDS011;11456;47.030;15.396;2024-02-23T11:12:24;6.38;;;3.30;;
22579;SDS011;11456;47.030;15.396;2024-02-23T11:14:56;4.15;;;2.90;;
22579;SDS011;11456;47.030;15.396;2024-02-23T11:17:26;5.82;;;3.40;;
22579;SDS011;11456;47.030;15.396;2024-02-23T11:19:55;12.93;;;5.65;;
22579;SDS011;11456;47.030;15.396;2024-02-23T11:22:33;10.98;;;4.95;;
22579;SDS011;11456;47.030;15.396;2024-02-23T11:25:05;5.40;;;3.28;;
22579;SDS011;11456;47.030;15.396;2024-02-23T11:27:40;8.07;;;3.72;;
22579;SDS011;11456;47.030;15.396;2024-02-23T11:30:09;10.75;;;3.75;;
22579;SDS011;11456;47.030;15.396;2024-02-23T11:32:39;10.05;;;3.90;;
22579;SDS011;11456;47.030;15.396;2024-02-23T11:35:09;6.63;;;3.28;;
22579;SDS011;11456;47.030;15.396;2024-02-23T11:37:47;6.07;;;3.30;;
22579;SDS011;11456;47.030;15.396;2024-02-23T11:40:26;11.93;;;3.83;;
22579;SDS011;11456;47.030;15.396;2024-02-23T11:42:57;6.20;;;3.30;;
22579;SDS011;11456;47.030;15.396;2024-02-23T11:45:29;5.72;;;2.92;;
22579;SDS011;11456;47.030;15.396;2024-02-23T11:47:58;9.68;;;3.35;;
22579;SDS011;11456;47.030;15.396;2024-02-23T11:50:26;6.47;;;3.20;;
22579;SDS011;11456;47.030;15.396;2024-02-23T11:52:53;6.45;;;3.15;;
22579;SDS011;11456;47.030;15.396;2024-02-23T11:55:20;6.20;;;2.92;;
22579;SDS011;11456;47.030;15.396;2024-02-23T11:57:49;5.32;;;2.58;;
22579;SDS011;11456;47.030;15.396;2024-02-23T12:00:30;3.92;;;2.60;;
22579;SDS011;11456;47.030;15.396;2024-02-23T12:02:57;4.30;;;2.55;;
22579;SDS011;11456;47.030;15.396;2024-02-23T12:05:23;5.28;;;2.60;;
22579;SDS011;11456;47.030;15.396;2024-02-23T12:07:50;4.50;;;2.53;;
22579;SDS011;11456;47.030;15.396;2024-02-23T12:10:17;3.83;;;2.38;;
22579;SDS011;11456;47.030;15.396;2024-02-23T12:12:44;3.03;;;2.33;;
22579;SDS011;11456;47.030;15.396;2024-02-23T12:15:11;5.90;;;2.45;;
22579;SDS011;11456;47.030;15.396;2024-02-23T12:17:46;3.55;;;2.38;;
22579;SDS011;11456;47.030;15.396;2024-02-23T12:20:13;3.30;;;2.20;;
22579;SDS011;11456;47.030;15.396;2024-02-23T12:22:41;2.50;;;2.08;;
22579;SDS011;11456;47.030;15.396;2024-02-23T12:25:08;5.70;;;2.42;;
22579;SDS011;11456;47.030;15.396;2024-02-23T12:27:34;10.20;;;2.70;;
22579;SDS011;11456;47.030;15.396;2024-02-23T12:30:01;3.85;;;2.20;;
22579;SDS011;11456;47.030;15.396;2024-02-23T12:32:28;4.97;;;3.03;;
22579;SDS011;11456;47.030;15.396;2024-02-23T12:34:55;5.82;;;3.70;;
22579;SDS011;11456;47.030;15.396;2024-02-23T12:37:22;8.63;;;3.60;;
22579;SDS011;11456;47.030;15.396;2024-02-23T12:39:49;6.30;;;3.05;;
22579;SDS011;11456;47.030;15.396;2024-02-23T12:42:16;3.20;;;2.47;;
22579;SDS011;11456;47.030;15.396;2024-02-23T12:44:44;5.75;;;2.67;;
22579;SDS011;11456;47.030;15.396;2024-02-23T12:47:11;4.28;;;2.63;;
22579;SDS011;11456;47.030;15.396;2024-02-23T12:49:37;6.78;;;2.70;;
22579;SDS011;11456;47.030;15.396;2024-02-23T12:52:08;7.38;;;2.78;;
22579;SDS011;11456;47.030;15.396;2024-02-23T12:54:35;6.75;;;3.20;;
22579;SDS011;11456;47.030;15.396;2024-02-23T12:57:02;6.32;;;3.15;;
22579;SDS011;11456;47.030;15.396;2024-02-23T12:59:29;5.78;;;2.97;;
22579;SDS011;11456;47.030;15.396;2024-02-23T13:01:57;5.80;;;3.17;;
22579;SDS011;11456;47.030;15.396;2024-02-23T13:04:24;5.45;;;3.05;;
22579;SDS011;11456;47.030;15.396;2024-02-23T13:06:51;4.00;;;2.85;;
22579;SDS011;11456;47.030;15.396;2024-02-23T13:09:20;5.57;;;3.13;;
22579;SDS011;11456;47.030;15.396;2024-02-23T13:11:47;5.45;;;3.60;;
22579;SDS011;11456;47.030;15.396;2024-02-23T13:14:14;8.45;;;3.45;;
22579;SDS011;11456;47.030;15.396;2024-02-23T13:16:42;5.13;;;3.17;;
22579;SDS011;11456;47.030;15.396;2024-02-23T13:19:09;9.52;;;3.72;;
22579;SDS011;11456;47.030;15.396;2024-02-23T13:21:36;10.68;;;3.60;;
22579;SDS011;11456;47.030;15.396;2024-02-23T13:24:03;8.00;;;3.47;;
22579;SDS011;11456;47.030;15.396;2024-02-23T13:26:30;6.38;;;3.53;;
22579;SDS011;11456;47.030;15.396;2024-02-23T13:28:57;5.65;;;3.55;;
22579;SDS011;11456;47.030;15.396;2024-02-23T13:31:24;7.07;;;3.17;;
22579;SDS011;11456;47.030;15.396;2024-02-23T13:33:50;7.28;;;3.78;;
22579;SDS011;11456;47.030;15.396;2024-02-23T13:36:17;8.13;;;3.75;;
22579;SDS011;11456;47.030;15.396;2024-02-23T13:38:44;4.65;;;3.35;;
22579;SDS011;11456;47.030;15.396;2024-02-23T13:41:11;5.78;;;4.00;;
22579;SDS011;11456;47.030;15.396;2024-02-23T13:43:38;8.18;;;4.03;;
22579;SDS011;11456;47.030;15.396;2024-02-23T13:46:05;9.95;;;5.65;;
22579;SDS011;11456;47.030;15.396;2024-02-23T13:48:33;7.07;;;4.88;;
22579;SDS011;11456;47.030;15.396;2024-02-23T13:50:59;6.32;;;3.65;;
22579;SDS011;11456;47.030;15.396;2024-02-23T13:53:31;8.40;;;3.63;;
22579;SDS011;11456;47.030;15.396;2024-02-23T13:55:59;6.28;;;3.65;;
22579;SDS011;11456;47.030;15.396;2024-02-23T13:58:29;9.00;;;3.78;;
22579;SDS011;11456;47.030;15.396;2024-02-23T14:00:55;6.85;;;3.42;;
22579;SDS011;11456;47.030;15.396;2024-02-23T14:03:22;7.32;;;3.50;;
22579;SDS011;11456;47.030;15.396;2024-02-23T14:05:49;6.13;;;3.63;;
22579;SDS011;11456;47.030;15.396;2024-02-23T14:08:16;5.25;;;3.30;;
22579;SDS011;11456;47.030;15.396;2024-02-23T14:10:43;4.38;;;3.85;;
22579;SDS011;11456;47.030;15.396;2024-02-23T14:13:10;5.90;;;3.55;;
22579;SDS011;11456;47.030;15.396;2024-02-23T14:15:37;8.02;;;4.05;;
22579;SDS011;11456;47.030;15.396;2024-02-23T14:18:04;6.47;;;3.58;;
22579;SDS011;11456;47.030;15.396;2024-02-23T14:20:31;10.20;;;4.10;;
22579;SDS011;11456;47.030;15.396;2024-02-23T14:22:57;8.15;;;3.80;;
22579;SDS011;11456;47.030;15.396;2024-02-23T14:25:24;6.40;;;3.97;;
22579;SDS011;11456;47.030;15.396;2024-02-23T14:27:51;7.68;;;4.50;;
22579;SDS011;11456;47.030;15.396;2024-02-23T14:30:17;8.57;;;4.47;;
22579;SDS011;11456;47.030;15.396;2024-02-23T14:32:44;35.53;;;16.70;;
22579;SDS011;11456;47.030;15.396;2024-02-23T14:35:11;25.30;;;11.18;;
22579;SDS011;11456;47.030;15.396;2024-02-23T14:37:38;26.20;;;15.57;;